sensor_id;sensor_type;location;lat;lon;timestamp;P1;durP1;ratioP1;P2;durP2;ratioP2
53040;SDS011;39326;42.650;23.248;2022-12-19T00:01:40;14.97;;;11.00;;
53040;SDS011;39326;42.650;23.248;2022-12-19T00:04:07;15.30;;;12.03;;
53040;SDS011;39326;42.650;23.248;2022-12-19T00:06:35;14.00;;;12.50;;
53040;SDS011;39326;42.650;23.248;2022-12-19T00:09:02;15.83;;;12.83;;
53040;SDS011;39326;42.650;23.248;2022-12-19T00:11:29;15.90;;;12.40;;
53040;SDS011;39326;42.650;23.248;2022-12-19T00:13:55;16.63;;;13.47;;
53040;SDS011;39326;42.650;23.248;2022-12-19T00:16:22;18.23;;;14.47;;
53040;SDS011;39326;42.650;23.248;2022-12-19T00:18:50;16.17;;;12.83;;
53040;SDS011;39326;42.650;23.248;2022-12-19T00:21:17;18.10;;;14.27;;
53040;SDS011;39326;42.650;23.248;2022-12-19T00:23:45;16.97;;;12.97;;
53040;SDS011;39326;42.650;23.248;2022-12-19T00:26:11;15.43;;;11.60;;
53040;SDS011;39326;42.650;23.248;2022-12-19T00:28:38;17.37;;;13.43;;
53040;SDS011;39326;42.650;23.248;2022-12-19T00:31:05;14.80;;;11.90;;
53040;SDS011;39326;42.650;23.248;2022-12-19T00:33:30;15.67;;;12.50;;
53040;SDS011;39326;42.650;23.248;2022-12-19T00:35:57;17.27;;;13.93;;
53040;SDS011;39326;42.650;23.248;2022-12-19T00:38:23;20.07;;;13.83;;
53040;SDS011;39326;42.650;23.248;2022-12-19T00:40:48;17.77;;;14.23;;
53040;SDS011;39326;42.650;23.248;2022-12-19T00:43:13;16.07;;;13.53;;
53040;SDS011;39326;42.650;23.248;2022-12-19T00:45:39;16.63;;;13.67;;
53040;SDS011;39326;42.650;23.248;2022-12-19T00:48:05;17.77;;;13.33;;
53040;SDS011;39326;42.650;23.248;2022-12-19T00:50:30;16.53;;;13.13;;
53040;SDS011;39326;42.650;23.248;2022-12-19T00:52:55;17.60;;;14.03;;
53040;SDS011;39326;42.650;23.248;2022-12-19T00:55:21;16.77;;;14.50;;
53040;SDS011;39326;42.650;23.248;2022-12-19T00:57:46;16.43;;;13.00;;
53040;SDS011;39326;42.650;23.248;2022-12-19T01:00:12;16.77;;;13.00;;
53040;SDS011;39326;42.650;23.248;2022-12-19T01:02:38;17.10;;;14.20;;
53040;SDS011;39326;42.650;23.248;2022-12-19T01:05:03;16.10;;;12.27;;
53040;SDS011;39326;42.650;23.248;2022-12-19T01:07:29;17.17;;;14.07;;
53040;SDS011;39326;42.650;23.248;2022-12-19T01:09:55;17.83;;;13.87;;
53040;SDS011;39326;42.650;23.248;2022-12-19T01:12:20;16.10;;;13.30;;
53040;SDS011;39326;42.650;23.248;2022-12-19T01:15:04;19.80;;;13.47;;
53040;SDS011;39326;42.650;23.248;2022-12-19T01:17:30;20.67;;;15.33;;
53040;SDS011;39326;42.650;23.248;2022-12-19T01:19:58;18.70;;;14.67;;
53040;SDS011;39326;42.650;23.248;2022-12-19T01:22:24;16.77;;;13.77;;
53040;SDS011;39326;42.650;23.248;2022-12-19T01:24:49;18.57;;;13.97;;
53040;SDS011;39326;42.650;23.248;2022-12-19T01:27:14;17.40;;;13.87;;
53040;SDS011;39326;42.650;23.248;2022-12-19T01:29:40;16.50;;;13.90;;
53040;SDS011;39326;42.650;23.248;2022-12-19T01:32:05;17.13;;;13.40;;
53040;SDS011;39326;42.650;23.248;2022-12-19T01:34:31;17.57;;;13.80;;
53040;SDS011;39326;42.650;23.248;2022-12-19T01:36:56;17.17;;;12.93;;
53040;SDS011;39326;42.650;23.248;2022-12-19T01:39:22;16.33;;;12.87;;
53040;SDS011;39326;42.650;23.248;2022-12-19T01:41:47;17.10;;;14.10;;
53040;SDS011;39326;42.650;23.248;2022-12-19T01:44:12;16.80;;;13.23;;
53040;SDS011;39326;42.650;23.248;2022-12-19T01:49:05;17.87;;;13.83;;
53040;SDS011;39326;42.650;23.248;2022-12-19T01:51:40;15.60;;;13.73;;
53040;SDS011;39326;42.650;23.248;2022-12-19T01:54:09;17.80;;;13.80;;
53040;SDS011;39326;42.650;23.248;2022-12-19T01:56:39;18.17;;;14.23;;
53040;SDS011;39326;42.650;23.248;2022-12-19T01:59:09;19.70;;;14.33;;
53040;SDS011;39326;42.650;23.248;2022-12-19T02:01:43;19.47;;;14.90;;
53040;SDS011;39326;42.650;23.248;2022-12-19T02:04:09;19.43;;;14.60;;
53040;SDS011;39326;42.650;23.248;2022-12-19T02:06:37;15.97;;;13.17;;
53040;SDS011;39326;42.650;23.248;2022-12-19T02:09:03;16.77;;;13.63;;
53040;SDS011;39326;42.650;23.248;2022-12-19T02:11:31;18.20;;;14.23;;
53040;SDS011;39326;42.650;23.248;2022-12-19T02:13:57;17.93;;;13.37;;
53040;SDS011;39326;42.650;23.248;2022-12-19T02:16:25;17.53;;;13.87;;
53040;SDS011;39326;42.650;23.248;2022-12-19T02:37:24;17.47;;;14.90;;
53040;SDS011;39326;42.650;23.248;2022-12-19T02:40:10;16.20;;;14.20;;
53040;SDS011;39326;42.650;23.248;2022-12-19T02:42:44;18.97;;;13.50;;
53040;SDS011;39326;42.650;23.248;2022-12-19T02:45:13;17.73;;;13.87;;
53040;SDS011;39326;42.650;23.248;2022-12-19T02:47:41;17.43;;;13.77;;
53040;SDS011;39326;42.650;23.248;2022-12-19T02:50:08;19.73;;;15.27;;
53040;SDS011;39326;42.650;23.248;2022-12-19T02:55:05;19.27;;;14.90;;
53040;SDS011;39326;42.650;23.248;2022-12-19T03:00:10;16.73;;;13.77;;
53040;SDS011;39326;42.650;23.248;2022-12-19T03:08:08;17.73;;;14.13;;
53040;SDS011;39326;42.650;23.248;2022-12-19T03:11:00;18.30;;;14.13;;
53040;SDS011;39326;42.650;23.248;2022-12-19T03:13:40;15.93;;;13.07;;
53040;SDS011;39326;42.650;23.248;2022-12-19T03:16:10;17.23;;;13.90;;
53040;SDS011;39326;42.650;23.248;2022-12-19T03:18:36;17.67;;;14.70;;
53040;SDS011;39326;42.650;23.248;2022-12-19T03:23:31;16.87;;;13.83;;
53040;SDS011;39326;42.650;23.248;2022-12-19T03:25:59;19.33;;;13.53;;
53040;SDS011;39326;42.650;23.248;2022-12-19T03:31:21;18.50;;;13.97;;
53040;SDS011;39326;42.650;23.248;2022-12-19T03:33:53;17.37;;;14.03;;
53040;SDS011;39326;42.650;23.248;2022-12-19T03:36:38;20.70;;;14.97;;
53040;SDS011;39326;42.650;23.248;2022-12-19T03:39:07;20.73;;;15.90;;
53040;SDS011;39326;42.650;23.248;2022-12-19T03:41:35;25.00;;;19.00;;
53040;SDS011;39326;42.650;23.248;2022-12-19T03:44:22;17.67;;;14.87;;
53040;SDS011;39326;42.650;23.248;2022-12-19T03:46:50;18.30;;;14.87;;
53040;SDS011;39326;42.650;23.248;2022-12-19T03:49:22;18.33;;;14.60;;
53040;SDS011;39326;42.650;23.248;2022-12-19T03:55:03;19.73;;;14.43;;
53040;SDS011;39326;42.650;23.248;2022-12-19T04:00:43;18.63;;;14.57;;
53040;SDS011;39326;42.650;23.248;2022-12-19T04:03:14;20.10;;;15.03;;
53040;SDS011;39326;42.650;23.248;2022-12-19T04:05:41;20.53;;;16.90;;
53040;SDS011;39326;42.650;23.248;2022-12-19T04:08:09;20.50;;;15.53;;
53040;SDS011;39326;42.650;23.248;2022-12-19T04:10:44;19.83;;;15.13;;
53040;SDS011;39326;42.650;23.248;2022-12-19T04:13:18;21.67;;;16.23;;
53040;SDS011;39326;42.650;23.248;2022-12-19T04:18:16;18.20;;;14.17;;
53040;SDS011;39326;42.650;23.248;2022-12-19T04:20:46;19.43;;;14.67;;
53040;SDS011;39326;42.650;23.248;2022-12-19T04:23:20;18.87;;;14.37;;
53040;SDS011;39326;42.650;23.248;2022-12-19T04:25:51;17.93;;;13.77;;
53040;SDS011;39326;42.650;23.248;2022-12-19T04:28:37;20.00;;;14.53;;
53040;SDS011;39326;42.650;23.248;2022-12-19T04:31:06;18.50;;;14.53;;
53040;SDS011;39326;42.650;23.248;2022-12-19T04:33:34;17.23;;;13.40;;
53040;SDS011;39326;42.650;23.248;2022-12-19T04:36:00;18.17;;;14.23;;
53040;SDS011;39326;42.650;23.248;2022-12-19T04:38:25;17.70;;;12.97;;
53040;SDS011;39326;42.650;23.248;2022-12-19T04:40:51;14.67;;;12.60;;
53040;SDS011;39326;42.650;23.248;2022-12-19T04:43:16;17.63;;;13.57;;
53040;SDS011;39326;42.650;23.248;2022-12-19T04:45:42;19.57;;;14.37;;
53040;SDS011;39326;42.650;23.248;2022-12-19T04:48:07;18.07;;;13.87;;
53040;SDS011;39326;42.650;23.248;2022-12-19T04:50:33;16.33;;;13.20;;
53040;SDS011;39326;42.650;23.248;2022-12-19T04:52:59;17.03;;;13.23;;
53040;SDS011;39326;42.650;23.248;2022-12-19T04:55:25;18.57;;;14.03;;
53040;SDS011;39326;42.650;23.248;2022-12-19T04:57:50;17.03;;;14.00;;
53040;SDS011;39326;42.650;23.248;2022-12-19T05:00:15;18.53;;;13.97;;
53040;SDS011;39326;42.650;23.248;2022-12-19T05:02:41;18.90;;;14.03;;
53040;SDS011;39326;42.650;23.248;2022-12-19T05:05:07;18.03;;;14.30;;
53040;SDS011;39326;42.650;23.248;2022-12-19T05:07:32;18.90;;;14.43;;
53040;SDS011;39326;42.650;23.248;2022-12-19T05:09:58;21.33;;;14.53;;
53040;SDS011;39326;42.650;23.248;2022-12-19T05:12:23;19.23;;;13.33;;
53040;SDS011;39326;42.650;23.248;2022-12-19T05:14:49;18.33;;;14.13;;
53040;SDS011;39326;42.650;23.248;2022-12-19T05:17:14;17.63;;;13.53;;
53040;SDS011;39326;42.650;23.248;2022-12-19T05:19:39;18.77;;;15.17;;
53040;SDS011;39326;42.650;23.248;2022-12-19T05:22:05;21.03;;;14.73;;
53040;SDS011;39326;42.650;23.248;2022-12-19T05:24:30;21.53;;;16.10;;
53040;SDS011;39326;42.650;23.248;2022-12-19T05:26:56;19.37;;;14.70;;
53040;SDS011;39326;42.650;23.248;2022-12-19T05:29:21;19.07;;;14.57;;
53040;SDS011;39326;42.650;23.248;2022-12-19T05:31:46;18.43;;;14.53;;
53040;SDS011;39326;42.650;23.248;2022-12-19T05:34:12;21.80;;;15.43;;
53040;SDS011;39326;42.650;23.248;2022-12-19T05:36:37;19.57;;;14.87;;
53040;SDS011;39326;42.650;23.248;2022-12-19T05:39:03;16.90;;;13.27;;
53040;SDS011;39326;42.650;23.248;2022-12-19T05:41:28;17.90;;;14.30;;
53040;SDS011;39326;42.650;23.248;2022-12-19T05:43:54;21.40;;;15.67;;
53040;SDS011;39326;42.650;23.248;2022-12-19T05:46:21;20.50;;;15.17;;
53040;SDS011;39326;42.650;23.248;2022-12-19T05:48:48;17.13;;;14.00;;
53040;SDS011;39326;42.650;23.248;2022-12-19T05:51:14;19.87;;;15.30;;
53040;SDS011;39326;42.650;23.248;2022-12-19T05:53:39;18.93;;;14.27;;
53040;SDS011;39326;42.650;23.248;2022-12-19T05:56:09;18.67;;;14.83;;
53040;SDS011;39326;42.650;23.248;2022-12-19T05:58:37;21.00;;;15.03;;
53040;SDS011;39326;42.650;23.248;2022-12-19T06:01:08;20.80;;;15.37;;
53040;SDS011;39326;42.650;23.248;2022-12-19T06:03:36;18.97;;;15.23;;
53040;SDS011;39326;42.650;23.248;2022-12-19T06:06:02;18.80;;;14.83;;
53040;SDS011;39326;42.650;23.248;2022-12-19T06:08:30;17.20;;;14.13;;
53040;SDS011;39326;42.650;23.248;2022-12-19T06:10:57;18.20;;;14.83;;
53040;SDS011;39326;42.650;23.248;2022-12-19T06:13:26;20.30;;;15.80;;
53040;SDS011;39326;42.650;23.248;2022-12-19T06:15:57;18.90;;;15.37;;
53040;SDS011;39326;42.650;23.248;2022-12-19T06:18:23;16.47;;;14.70;;
53040;SDS011;39326;42.650;23.248;2022-12-19T06:20:58;18.67;;;15.37;;
53040;SDS011;39326;42.650;23.248;2022-12-19T06:23:26;19.33;;;14.80;;
53040;SDS011;39326;42.650;23.248;2022-12-19T06:25:54;20.93;;;15.37;;
53040;SDS011;39326;42.650;23.248;2022-12-19T06:28:21;19.37;;;15.30;;
53040;SDS011;39326;42.650;23.248;2022-12-19T06:30:47;20.43;;;16.97;;
53040;SDS011;39326;42.650;23.248;2022-12-19T06:33:12;19.40;;;15.47;;
53040;SDS011;39326;42.650;23.248;2022-12-19T06:35:37;19.63;;;15.53;;
53040;SDS011;39326;42.650;23.248;2022-12-19T06:38:03;23.10;;;18.33;;
53040;SDS011;39326;42.650;23.248;2022-12-19T06:40:28;22.17;;;17.00;;
53040;SDS011;39326;42.650;23.248;2022-12-19T06:43:12;19.73;;;15.50;;
53040;SDS011;39326;42.650;23.248;2022-12-19T06:45:38;24.13;;;17.00;;
53040;SDS011;39326;42.650;23.248;2022-12-19T06:48:03;22.43;;;17.20;;
53040;SDS011;39326;42.650;23.248;2022-12-19T06:50:29;18.97;;;16.00;;
53040;SDS011;39326;42.650;23.248;2022-12-19T06:52:54;19.50;;;14.90;;
53040;SDS011;39326;42.650;23.248;2022-12-19T06:55:19;22.90;;;16.77;;
53040;SDS011;39326;42.650;23.248;2022-12-19T06:57:45;23.77;;;17.33;;
53040;SDS011;39326;42.650;23.248;2022-12-19T07:00:13;22.50;;;16.63;;
53040;SDS011;39326;42.650;23.248;2022-12-19T07:02:41;21.57;;;16.67;;
53040;SDS011;39326;42.650;23.248;2022-12-19T07:05:08;21.70;;;15.90;;
53040;SDS011;39326;42.650;23.248;2022-12-19T07:07:35;26.77;;;19.17;;
53040;SDS011;39326;42.650;23.248;2022-12-19T07:10:00;21.07;;;17.07;;
53040;SDS011;39326;42.650;23.248;2022-12-19T07:12:27;20.93;;;16.17;;
53040;SDS011;39326;42.650;23.248;2022-12-19T07:14:53;23.23;;;17.67;;
53040;SDS011;39326;42.650;23.248;2022-12-19T07:17:18;21.63;;;16.13;;
53040;SDS011;39326;42.650;23.248;2022-12-19T07:19:46;24.27;;;17.13;;
53040;SDS011;39326;42.650;23.248;2022-12-19T07:22:11;21.30;;;16.80;;
53040;SDS011;39326;42.650;23.248;2022-12-19T07:24:37;21.57;;;15.50;;
53040;SDS011;39326;42.650;23.248;2022-12-19T07:27:02;18.87;;;15.90;;
53040;SDS011;39326;42.650;23.248;2022-12-19T07:29:28;22.43;;;15.73;;
53040;SDS011;39326;42.650;23.248;2022-12-19T07:31:53;20.57;;;15.83;;
53040;SDS011;39326;42.650;23.248;2022-12-19T07:34:19;21.00;;;16.03;;
53040;SDS011;39326;42.650;23.248;2022-12-19T07:36:44;22.23;;;16.30;;
53040;SDS011;39326;42.650;23.248;2022-12-19T07:39:10;24.60;;;19.30;;
53040;SDS011;39326;42.650;23.248;2022-12-19T07:41:36;23.33;;;17.43;;
53040;SDS011;39326;42.650;23.248;2022-12-19T07:44:02;24.97;;;21.10;;
53040;SDS011;39326;42.650;23.248;2022-12-19T07:46:28;24.93;;;20.57;;
53040;SDS011;39326;42.650;23.248;2022-12-19T07:48:56;25.87;;;20.40;;
53040;SDS011;39326;42.650;23.248;2022-12-19T07:51:22;28.27;;;21.37;;
53040;SDS011;39326;42.650;23.248;2022-12-19T07:53:47;31.93;;;22.37;;
53040;SDS011;39326;42.650;23.248;2022-12-19T07:56:12;33.63;;;24.97;;
53040;SDS011;39326;42.650;23.248;2022-12-19T07:58:39;26.87;;;22.17;;
53040;SDS011;39326;42.650;23.248;2022-12-19T08:01:05;30.60;;;21.60;;
53040;SDS011;39326;42.650;23.248;2022-12-19T08:03:30;27.17;;;21.03;;
53040;SDS011;39326;42.650;23.248;2022-12-19T08:06:02;27.47;;;21.00;;
53040;SDS011;39326;42.650;23.248;2022-12-19T08:08:30;31.07;;;22.10;;
53040;SDS011;39326;42.650;23.248;2022-12-19T08:11:02;31.00;;;22.17;;
53040;SDS011;39326;42.650;23.248;2022-12-19T08:13:30;26.83;;;20.80;;
53040;SDS011;39326;42.650;23.248;2022-12-19T08:15:58;35.30;;;25.17;;
53040;SDS011;39326;42.650;23.248;2022-12-19T08:18:24;31.07;;;24.60;;
53040;SDS011;39326;42.650;23.248;2022-12-19T08:20:50;33.10;;;26.73;;
53040;SDS011;39326;42.650;23.248;2022-12-19T08:23:15;31.80;;;23.73;;
53040;SDS011;39326;42.650;23.248;2022-12-19T08:25:40;31.40;;;24.43;;
53040;SDS011;39326;42.650;23.248;2022-12-19T08:28:06;31.30;;;24.53;;
53040;SDS011;39326;42.650;23.248;2022-12-19T08:30:31;34.83;;;25.40;;
53040;SDS011;39326;42.650;23.248;2022-12-19T08:32:57;28.90;;;21.23;;
53040;SDS011;39326;42.650;23.248;2022-12-19T08:35:22;29.00;;;24.00;;
53040;SDS011;39326;42.650;23.248;2022-12-19T08:37:47;31.87;;;24.10;;
53040;SDS011;39326;42.650;23.248;2022-12-19T08:40:13;33.77;;;25.53;;
53040;SDS011;39326;42.650;23.248;2022-12-19T08:42:38;30.07;;;23.10;;
53040;SDS011;39326;42.650;23.248;2022-12-19T08:45:04;32.43;;;22.43;;
53040;SDS011;39326;42.650;23.248;2022-12-19T08:47:30;34.60;;;23.57;;
53040;SDS011;39326;42.650;23.248;2022-12-19T08:49:55;31.47;;;24.60;;
53040;SDS011;39326;42.650;23.248;2022-12-19T08:52:21;29.97;;;23.50;;
53040;SDS011;39326;42.650;23.248;2022-12-19T08:54:46;31.20;;;22.80;;
53040;SDS011;39326;42.650;23.248;2022-12-19T08:57:12;31.23;;;23.17;;
53040;SDS011;39326;42.650;23.248;2022-12-19T08:59:37;31.77;;;22.10;;
53040;SDS011;39326;42.650;23.248;2022-12-19T09:02:03;28.90;;;22.30;;
53040;SDS011;39326;42.650;23.248;2022-12-19T09:04:28;27.27;;;21.63;;
53040;SDS011;39326;42.650;23.248;2022-12-19T09:06:54;31.77;;;24.63;;
53040;SDS011;39326;42.650;23.248;2022-12-19T09:09:20;28.43;;;20.93;;
53040;SDS011;39326;42.650;23.248;2022-12-19T09:11:45;28.77;;;21.37;;
53040;SDS011;39326;42.650;23.248;2022-12-19T09:14:11;28.23;;;22.87;;
53040;SDS011;39326;42.650;23.248;2022-12-19T09:16:36;33.00;;;25.23;;
53040;SDS011;39326;42.650;23.248;2022-12-19T09:19:01;32.10;;;23.53;;
53040;SDS011;39326;42.650;23.248;2022-12-19T09:21:27;29.70;;;23.37;;
53040;SDS011;39326;42.650;23.248;2022-12-19T09:23:54;32.40;;;24.83;;
53040;SDS011;39326;42.650;23.248;2022-12-19T09:26:22;33.47;;;24.63;;
53040;SDS011;39326;42.650;23.248;2022-12-19T09:28:49;37.57;;;25.40;;
53040;SDS011;39326;42.650;23.248;2022-12-19T09:31:23;30.67;;;23.50;;
53040;SDS011;39326;42.650;23.248;2022-12-19T09:33:49;33.53;;;22.57;;
53040;SDS011;39326;42.650;23.248;2022-12-19T09:36:16;24.97;;;19.23;;
53040;SDS011;39326;42.650;23.248;2022-12-19T09:38:47;29.33;;;20.10;;
53040;SDS011;39326;42.650;23.248;2022-12-19T09:41:36;29.17;;;20.57;;
53040;SDS011;39326;42.650;23.248;2022-12-19T09:47:02;25.33;;;18.30;;
53040;SDS011;39326;42.650;23.248;2022-12-19T09:49:41;28.07;;;19.43;;
53040;SDS011;39326;42.650;23.248;2022-12-19T09:57:43;27.47;;;18.00;;
53040;SDS011;39326;42.650;23.248;2022-12-19T10:00:19;26.50;;;18.43;;
53040;SDS011;39326;42.650;23.248;2022-12-19T10:02:55;24.43;;;18.63;;
53040;SDS011;39326;42.650;23.248;2022-12-19T10:05:40;27.60;;;20.03;;
53040;SDS011;39326;42.650;23.248;2022-12-19T10:08:14;22.23;;;13.73;;
53040;SDS011;39326;42.650;23.248;2022-12-19T10:16:35;30.00;;;19.97;;
53040;SDS011;39326;42.650;23.248;2022-12-19T10:19:07;28.70;;;19.43;;
53040;SDS011;39326;42.650;23.248;2022-12-19T10:26:52;28.67;;;19.77;;
53040;SDS011;39326;42.650;23.248;2022-12-19T10:31:51;26.20;;;19.53;;
53040;SDS011;39326;42.650;23.248;2022-12-19T10:34:43;28.77;;;21.00;;
53040;SDS011;39326;42.650;23.248;2022-12-19T10:37:15;29.97;;;20.60;;
53040;SDS011;39326;42.650;23.248;2022-12-19T10:42:57;25.47;;;19.73;;
53040;SDS011;39326;42.650;23.248;2022-12-19T10:45:03;23.10;;;16.87;;
53040;SDS011;39326;42.650;23.248;2022-12-19T10:47:35;23.90;;;18.37;;
53040;SDS011;39326;42.650;23.248;2022-12-19T10:50:01;22.97;;;15.63;;
53040;SDS011;39326;42.650;23.248;2022-12-19T10:55:20;22.83;;;17.23;;
53040;SDS011;39326;42.650;23.248;2022-12-19T10:57:49;25.10;;;18.77;;
53040;SDS011;39326;42.650;23.248;2022-12-19T11:00:16;24.47;;;18.57;;
53040;SDS011;39326;42.650;23.248;2022-12-19T11:05:25;22.23;;;17.70;;
53040;SDS011;39326;42.650;23.248;2022-12-19T11:13:00;29.37;;;20.27;;
53040;SDS011;39326;42.650;23.248;2022-12-19T11:15:25;30.07;;;20.30;;
53040;SDS011;39326;42.650;23.248;2022-12-19T11:17:51;27.10;;;20.83;;
53040;SDS011;39326;42.650;23.248;2022-12-19T11:20:29;31.53;;;22.00;;
53040;SDS011;39326;42.650;23.248;2022-12-19T11:22:55;27.33;;;20.23;;
53040;SDS011;39326;42.650;23.248;2022-12-19T11:25:32;25.97;;;21.17;;
53040;SDS011;39326;42.650;23.248;2022-12-19T11:28:04;23.50;;;16.47;;
53040;SDS011;39326;42.650;23.248;2022-12-19T11:30:39;26.07;;;19.20;;
53040;SDS011;39326;42.650;23.248;2022-12-19T11:33:06;27.07;;;21.43;;
53040;SDS011;39326;42.650;23.248;2022-12-19T11:35:45;27.63;;;19.97;;
53040;SDS011;39326;42.650;23.248;2022-12-19T11:38:28;28.60;;;19.50;;
53040;SDS011;39326;42.650;23.248;2022-12-19T11:41:28;25.93;;;20.37;;
53040;SDS011;39326;42.650;23.248;2022-12-19T11:44:03;27.63;;;20.87;;
53040;SDS011;39326;42.650;23.248;2022-12-19T11:46:41;26.83;;;21.27;;
53040;SDS011;39326;42.650;23.248;2022-12-19T11:57:40;23.43;;;18.20;;
53040;SDS011;39326;42.650;23.248;2022-12-19T12:00:13;23.23;;;19.60;;
53040;SDS011;39326;42.650;23.248;2022-12-19T12:10:54;22.57;;;18.00;;
53040;SDS011;39326;42.650;23.248;2022-12-19T12:16:15;22.53;;;16.80;;
53040;SDS011;39326;42.650;23.248;2022-12-19T12:24:20;20.33;;;15.97;;
53040;SDS011;39326;42.650;23.248;2022-12-19T12:37:51;18.73;;;14.43;;
53040;SDS011;39326;42.650;23.248;2022-12-19T12:45:42;18.60;;;13.60;;
53040;SDS011;39326;42.650;23.248;2022-12-19T12:50:48;14.77;;;12.67;;
53040;SDS011;39326;42.650;23.248;2022-12-19T12:53:16;19.03;;;13.50;;
53040;SDS011;39326;42.650;23.248;2022-12-19T12:55:44;18.93;;;14.80;;
53040;SDS011;39326;42.650;23.248;2022-12-19T13:01:16;16.93;;;14.20;;
53040;SDS011;39326;42.650;23.248;2022-12-19T13:03:50;15.40;;;10.80;;
53040;SDS011;39326;42.650;23.248;2022-12-19T13:06:24;15.83;;;13.27;;
53040;SDS011;39326;42.650;23.248;2022-12-19T13:09:41;20.37;;;13.70;;
53040;SDS011;39326;42.650;23.248;2022-12-19T13:11:48;14.57;;;12.03;;
53040;SDS011;39326;42.650;23.248;2022-12-19T13:17:08;15.57;;;11.97;;
53040;SDS011;39326;42.650;23.248;2022-12-19T13:19:52;12.50;;;10.43;;
53040;SDS011;39326;42.650;23.248;2022-12-19T13:22:35;13.87;;;11.73;;
53040;SDS011;39326;42.650;23.248;2022-12-19T13:30:29;13.57;;;10.90;;
53040;SDS011;39326;42.650;23.248;2022-12-19T13:35:31;15.50;;;11.70;;
53040;SDS011;39326;42.650;23.248;2022-12-19T13:37:59;12.37;;;10.93;;
53040;SDS011;39326;42.650;23.248;2022-12-19T13:43:17;13.13;;;11.70;;
53040;SDS011;39326;42.650;23.248;2022-12-19T13:46:05;14.10;;;10.50;;
53040;SDS011;39326;42.650;23.248;2022-12-19T13:48:45;16.20;;;12.67;;
53040;SDS011;39326;42.650;23.248;2022-12-19T13:51:13;14.73;;;11.23;;
53040;SDS011;39326;42.650;23.248;2022-12-19T13:53:40;11.17;;;8.10;;
53040;SDS011;39326;42.650;23.248;2022-12-19T13:56:14;12.63;;;9.27;;
53040;SDS011;39326;42.650;23.248;2022-12-19T13:58:45;15.50;;;13.57;;
53040;SDS011;39326;42.650;23.248;2022-12-19T14:03:47;17.33;;;12.67;;
53040;SDS011;39326;42.650;23.248;2022-12-19T14:06:26;14.17;;;11.57;;
53040;SDS011;39326;42.650;23.248;2022-12-19T14:09:04;14.50;;;11.80;;
53040;SDS011;39326;42.650;23.248;2022-12-19T14:11:34;14.10;;;11.33;;
53040;SDS011;39326;42.650;23.248;2022-12-19T14:14:09;14.97;;;12.50;;
53040;SDS011;39326;42.650;23.248;2022-12-19T14:17:04;14.37;;;11.23;;
53040;SDS011;39326;42.650;23.248;2022-12-19T14:19:36;16.93;;;13.00;;
53040;SDS011;39326;42.650;23.248;2022-12-19T14:22:17;17.17;;;11.17;;
53040;SDS011;39326;42.650;23.248;2022-12-19T14:30:05;15.60;;;12.57;;
53040;SDS011;39326;42.650;23.248;2022-12-19T14:32:48;17.63;;;14.13;;
53040;SDS011;39326;42.650;23.248;2022-12-19T14:35:21;15.90;;;11.73;;
53040;SDS011;39326;42.650;23.248;2022-12-19T14:37:58;16.93;;;12.87;;
53040;SDS011;39326;42.650;23.248;2022-12-19T14:40:27;13.57;;;9.90;;
53040;SDS011;39326;42.650;23.248;2022-12-19T14:42:57;14.87;;;12.17;;
53040;SDS011;39326;42.650;23.248;2022-12-19T14:46:13;13.97;;;11.67;;
53040;SDS011;39326;42.650;23.248;2022-12-19T14:56:46;15.50;;;12.10;;
53040;SDS011;39326;42.650;23.248;2022-12-19T14:59:33;14.40;;;9.97;;
53040;SDS011;39326;42.650;23.248;2022-12-19T15:04:37;14.73;;;10.47;;
53040;SDS011;39326;42.650;23.248;2022-12-19T15:07:07;14.50;;;11.00;;
53040;SDS011;39326;42.650;23.248;2022-12-19T15:09:47;14.33;;;11.23;;
53040;SDS011;39326;42.650;23.248;2022-12-19T15:12:15;13.17;;;11.00;;
53040;SDS011;39326;42.650;23.248;2022-12-19T15:15:19;14.90;;;9.50;;
53040;SDS011;39326;42.650;23.248;2022-12-19T15:17:45;12.23;;;9.80;;
53040;SDS011;39326;42.650;23.248;2022-12-19T15:20:12;12.47;;;10.87;;
53040;SDS011;39326;42.650;23.248;2022-12-19T15:22:38;13.67;;;10.53;;
53040;SDS011;39326;42.650;23.248;2022-12-19T15:25:03;13.67;;;11.53;;
53040;SDS011;39326;42.650;23.248;2022-12-19T15:27:29;14.03;;;12.53;;
53040;SDS011;39326;42.650;23.248;2022-12-19T15:29:55;12.90;;;10.90;;
53040;SDS011;39326;42.650;23.248;2022-12-19T15:32:21;13.43;;;11.07;;
53040;SDS011;39326;42.650;23.248;2022-12-19T15:34:47;14.30;;;11.10;;
53040;SDS011;39326;42.650;23.248;2022-12-19T15:37:13;10.30;;;9.10;;
53040;SDS011;39326;42.650;23.248;2022-12-19T15:39:40;12.97;;;10.30;;
53040;SDS011;39326;42.650;23.248;2022-12-19T15:42:19;10.30;;;7.27;;
53040;SDS011;39326;42.650;23.248;2022-12-19T15:44:48;13.53;;;11.10;;
53040;SDS011;39326;42.650;23.248;2022-12-19T15:49:58;10.00;;;7.10;;
53040;SDS011;39326;42.650;23.248;2022-12-19T15:52:27;13.10;;;9.83;;
53040;SDS011;39326;42.650;23.248;2022-12-19T15:54:53;14.50;;;11.57;;
53040;SDS011;39326;42.650;23.248;2022-12-19T16:00:04;12.70;;;7.37;;
53040;SDS011;39326;42.650;23.248;2022-12-19T16:02:32;14.83;;;9.70;;
53040;SDS011;39326;42.650;23.248;2022-12-19T16:04:58;14.13;;;11.10;;
53040;SDS011;39326;42.650;23.248;2022-12-19T16:07:23;11.57;;;9.33;;
53040;SDS011;39326;42.650;23.248;2022-12-19T16:09:50;9.70;;;7.97;;
53040;SDS011;39326;42.650;23.248;2022-12-19T16:12:23;14.47;;;11.43;;
53040;SDS011;39326;42.650;23.248;2022-12-19T16:14:54;10.93;;;9.53;;
53040;SDS011;39326;42.650;23.248;2022-12-19T16:17:22;13.63;;;11.17;;
53040;SDS011;39326;42.650;23.248;2022-12-19T16:19:49;24.13;;;21.70;;
53040;SDS011;39326;42.650;23.248;2022-12-19T16:22:19;22.90;;;20.70;;
53040;SDS011;39326;42.650;23.248;2022-12-19T16:24:46;20.53;;;17.10;;
53040;SDS011;39326;42.650;23.248;2022-12-19T16:27:16;24.23;;;21.67;;
53040;SDS011;39326;42.650;23.248;2022-12-19T16:29:46;26.60;;;23.93;;
53040;SDS011;39326;42.650;23.248;2022-12-19T16:32:12;22.23;;;19.60;;
53040;SDS011;39326;42.650;23.248;2022-12-19T16:34:38;24.50;;;20.87;;
53040;SDS011;39326;42.650;23.248;2022-12-19T16:37:03;28.03;;;22.90;;
53040;SDS011;39326;42.650;23.248;2022-12-19T16:39:29;25.80;;;21.80;;
53040;SDS011;39326;42.650;23.248;2022-12-19T16:41:55;24.57;;;17.73;;
53040;SDS011;39326;42.650;23.248;2022-12-19T16:44:21;22.80;;;18.70;;
53040;SDS011;39326;42.650;23.248;2022-12-19T16:46:48;23.67;;;18.33;;
53040;SDS011;39326;42.650;23.248;2022-12-19T16:49:15;22.20;;;17.77;;
53040;SDS011;39326;42.650;23.248;2022-12-19T16:51:42;21.43;;;17.97;;
53040;SDS011;39326;42.650;23.248;2022-12-19T16:54:12;20.87;;;16.47;;
53040;SDS011;39326;42.650;23.248;2022-12-19T16:56:49;25.80;;;20.20;;
53040;SDS011;39326;42.650;23.248;2022-12-19T17:01:42;23.97;;;18.73;;
53040;SDS011;39326;42.650;23.248;2022-12-19T17:04:16;25.30;;;19.63;;
53040;SDS011;39326;42.650;23.248;2022-12-19T17:06:47;22.07;;;17.33;;
53040;SDS011;39326;42.650;23.248;2022-12-19T17:09:14;24.27;;;19.97;;